Time,TemperatureF,DewpointF,PressureIn,WindDirection,WindDirectionDegrees,WindSpeedMPH,WindSpeedGustMPH,Humidity,HourlyPrecipIn,Conditions,Clouds,dailyrainin,SoftwareType,DateUTC
2013-01-14 08:30:00,62.6,62.3,30.09,East,81,2.0,4.0,99,0.00,RA,,0.01,WeatherDisplay:10.37,2013-01-14 13:30:00,
2013-01-14 08:35:00,62.5,62.2,30.08,South,179,2.0,5.0,99,0.00,RA,,0.01,WeatherDisplay:10.37,2013-01-14 13:35:00,
2013-01-14 08:40:00,62.4,62.1,30.08,South,184,2.0,3.0,99,0.00,CLR,,0.01,WeatherDisplay:10.37,2013-01-14 13:40:00,
2013-01-14 08:45:00,62.3,62.0,30.08,South,178,1.0,3.0,99,0.00,CLR,,0.01,WeatherDisplay:10.37,2013-01-14 13:45:00,
2013-01-14 08:50:00,62.2,61.9,30.08,South,172,3.0,5.0,99,0.00,CLR,,0.01,WeatherDisplay:10.37,2013-01-14 13:50:00,
2013-01-14 08:55:00,62.1,61.8,30.08,South,180,2.0,7.0,99,0.00,CLR,,0.01,WeatherDisplay:10.37,2013-01-14 13:55:00,
2013-01-14 09:00:00,62.1,61.8,30.08,South,178,2.0,6.0,99,0.00,CLR,,0.01,WeatherDisplay:10.37,2013-01-14 14:00:00,
2013-01-14 09:05:00,62.1,61.8,30.08,SSE,168,2.0,4.0,99,0.00,CLR,,0.01,WeatherDisplay:10.37,2013-01-14 14:05:00,
2013-01-14 09:10:00,62.0,61.7,30.08,South,170,1.0,4.0,99,0.00,CLR,,0.01,WeatherDisplay:10.37,2013-01-14 14:10:00,
2013-01-14 09:15:00,62.0,61.7,30.08,South,172,2.0,6.0,99,0.00,CLR,,0.01,WeatherDisplay:10.37,2013-01-14 14:15:00,
2013-01-14 09:20:00,61.9,61.6,30.08,SSE,165,2.0,3.0,99,0.00,CLR,,0.01,WeatherDisplay:10.37,2013-01-14 14:20:00,
2013-01-14 09:25:00,61.9,61.6,30.08,South,178,1.0,6.0,99,0.00,CLR,,0.01,WeatherDisplay:10.37,2013-01-14 14:25:00,
2013-01-14 09:30:00,61.8,61.5,30.08,SSW,199,2.0,4.0,99,0.00,CLR,,0.01,WeatherDisplay:10.37,2013-01-14 14:30:00,
2013-01-14 09:35:00,61.8,61.5,30.08,South,182,2.0,4.0,99,0.00,CLR,,0.01,WeatherDisplay:10.37,2013-01-14 14:35:00,
2013-01-14 09:40:00,61.7,61.4,30.08,South,171,1.0,5.0,99,0.00,CLR,,0.01,WeatherDisplay:10.37,2013-01-14 14:40:00,
2013-01-14 09:45:00,61.6,61.3,30.08,South,178,2.0,5.0,99,0.00,CLR,,0.01,WeatherDisplay:10.37,2013-01-14 14:45:00,
2013-01-14 09:50:00,61.5,61.2,30.08,SSE,166,2.0,3.0,99,0.00,CLR,,0.01,WeatherDisplay:10.37,2013-01-14 14:50:00,
2013-01-14 09:55:00,61.5,61.2,30.09,SSE,163,1.0,4.0,99,0.00,CLR,,0.01,WeatherDisplay:10.37,2013-01-14 14:55:00,
2013-01-14 10:00:00,61.4,61.1,30.09,South,175,1.0,2.0,99,0.00,CLR,,0.01,WeatherDisplay:10.37,2013-01-14 15:00:00,
2013-01-14 10:05:00,61.4,61.1,30.09,SSW,197,1.0,1.0,99,0.00,CLR,,0.01,WeatherDisplay:10.37,2013-01-14 15:05:00,
2013-01-14 10:10:00,61.4,61.1,30.09,SSE,165,1.0,2.0,99,0.00,CLR,,0.01,WeatherDisplay:10.37,2013-01-14 15:10:00,
2013-01-14 10:15:00,61.5,61.2,30.09,SSE,161,1.0,5.0,99,0.00,CLR,,0.01,WeatherDisplay:10.37,2013-01-14 15:15:00,
2013-01-14 10:20:00,61.4,61.1,30.09,SSW,195,0.0,4.0,99,0.01,RA,,0.02,WeatherDisplay:10.37,2013-01-14 15:20:00,
2013-01-14 10:25:00,61.4,61.1,30.09,SW,220,1.0,5.0,99,0.01,RA,,0.02,WeatherDisplay:10.37,2013-01-14 15:25:00,
2013-01-14 10:30:00,61.4,61.1,30.10,SW,229,0.0,3.0,99,0.00,CLR,,0.02,WeatherDisplay:10.37,2013-01-14 15:30:00,
2013-01-14 10:35:00,61.3,61.0,30.10,SW,232,0.0,3.0,99,0.00,CLR,,0.02,WeatherDisplay:10.37,2013-01-14 15:35:00,
2013-01-14 10:40:00,61.3,61.0,30.10,SW,222,1.0,2.0,99,0.00,CLR,,0.02,WeatherDisplay:10.37,2013-01-14 15:40:00,
2013-01-14 10:45:00,61.3,61.0,30.10,SW,218,1.0,3.0,99,0.00,CLR,,0.02,WeatherDisplay:10.37,2013-01-14 15:45:00,
2013-01-14 10:50:00,61.2,60.9,30.10,South,175,0.0,2.0,99,0.00,CLR,,0.02,WeatherDisplay:10.37,2013-01-14 15:50:00,
2013-01-14 10:55:00,61.2,60.9,30.10,SE,137,0.0,1.0,99,0.01,RA,,0.03,WeatherDisplay:10.37,2013-01-14 15:55:00,
2013-01-14 11:00:00,61.2,60.9,30.10,SE,133,0.0,2.0,99,0.02,RA,,0.04,WeatherDisplay:10.37,2013-01-14 16:00:00,
2013-01-14 11:05:00,61.2,60.9,30.10,ESE,122,0.0,5.0,99,0.03,RA,,0.06,WeatherDisplay:10.37,2013-01-14 16:05:00,
2013-01-14 11:10:00,61.2,60.9,30.10,SE,140,1.0,3.0,99,0.03,RA,,0.07,WeatherDisplay:10.37,2013-01-14 16:10:00,
2013-01-14 11:15:00,61.2,60.9,30.09,SE,136,1.0,3.0,99,0.02,RA,,0.08,WeatherDisplay:10.37,2013-01-14 16:15:00,
2013-01-14 11:20:00,61.1,60.8,30.09,SE,128,1.0,5.0,99,0.02,RA,,0.09,WeatherDisplay:10.37,2013-01-14 16:20:00,
2013-01-14 11:25:00,61.1,60.8,30.09,SE,135,2.0,3.0,99,0.01,RA,,0.09,WeatherDisplay:10.37,2013-01-14 16:25:00,
2013-01-14 11:35:00,61.0,60.7,30.09,SSE,167,0.0,3.0,99,0.00,CLR,,0.09,WeatherDisplay:10.37,2013-01-14 16:35:00,
2013-01-14 11:45:00,61.0,60.7,30.09,SSW,210,0.0,4.0,99,0.00,CLR,,0.09,WeatherDisplay:10.37,2013-01-14 16:45:00,
2013-01-14 11:50:00,61.0,60.7,30.09,SSW,196,0.0,3.0,99,0.00,CLR,,0.09,WeatherDisplay:10.37,2013-01-14 16:50:00,
2013-01-14 11:55:00,60.9,60.6,30.09,SSW,211,0.0,2.0,99,0.00,CLR,,0.09,WeatherDisplay:10.37,2013-01-14 16:55:00,
2013-01-14 12:00:00,60.9,60.6,30.09,SW,225,0.0,1.0,99,0.00,CLR,,0.09,WeatherDisplay:10.37,2013-01-14 17:00:00,
2013-01-14 12:05:00,60.9,60.6,30.09,SW,225,0.0,1.0,99,0.00,RA,,0.00,WeatherDisplay:10.37,2013-01-14 17:05:00,
2013-01-14 12:10:00,60.9,60.6,30.09,SW,225,0.0,1.0,99,0.00,RA,,0.00,WeatherDisplay:10.37,2013-01-14 17:10:00,
2013-01-14 12:15:00,60.8,60.5,30.09,WSW,238,1.0,2.0,99,0.00,CLR,,0.00,WeatherDisplay:10.37,2013-01-14 17:15:00,
2013-01-14 12:20:00,60.8,60.5,30.09,WSW,238,0.0,3.0,99,0.00,CLR,,0.00,WeatherDisplay:10.37,2013-01-14 17:20:00,
2013-01-14 12:25:00,60.8,60.5,30.09,SW,225,1.0,2.0,99,0.00,CLR,,0.00,WeatherDisplay:10.37,2013-01-14 17:25:00,
2013-01-14 12:30:00,60.8,60.5,30.09,SW,225,0.0,1.0,99,0.00,CLR,,0.00,WeatherDisplay:10.37,2013-01-14 17:30:00,
2013-01-14 12:35:00,60.7,60.4,30.09,SSW,212,0.0,2.0,99,0.00,CLR,,0.00,WeatherDisplay:10.37,2013-01-14 17:35:00,
2013-01-14 12:40:00,60.7,60.4,30.09,SSE,158,0.0,1.0,99,0.01,RA,,0.01,WeatherDisplay:10.37,2013-01-14 17:40:00,
2013-01-14 12:45:00,60.7,60.4,30.09,SE,146,1.0,1.0,99,0.02,RA,,0.02,WeatherDisplay:10.37,2013-01-14 17:45:00,
2013-01-14 12:50:00,60.7,60.4,30.09,SSE,166,0.0,3.0,99,0.02,RA,,0.03,WeatherDisplay:10.37,2013-01-14 17:50:00,
2013-01-14 12:55:00,60.7,60.4,30.09,South,172,1.0,3.0,99,0.03,RA,,0.05,WeatherDisplay:10.37,2013-01-14 17:55:00,
2013-01-14 13:00:00,60.6,60.3,30.09,South,190,0.0,3.0,99,0.02,RA,,0.05,WeatherDisplay:10.37,2013-01-14 18:00:00,
2013-01-14 13:05:00,60.5,60.2,30.09,SSW,212,2.0,4.0,99,0.00,CLR,,0.05,WeatherDisplay:10.37,2013-01-14 18:05:00,
2013-01-14 13:10:00,60.5,60.2,30.09,SW,219,0.0,4.0,99,0.01,RA,,0.06,WeatherDisplay:10.37,2013-01-14 18:10:00,
2013-01-14 13:15:00,60.5,60.2,30.09,SW,232,0.0,2.0,99,0.01,RA,,0.06,WeatherDisplay:10.37,2013-01-14 18:15:00,
2013-01-14 13:20:00,60.5,60.2,30.09,SSW,207,1.0,3.0,99,0.01,RA,,0.07,WeatherDisplay:10.37,2013-01-14 18:20:00,
2013-01-14 13:25:00,60.5,60.2,30.09,SSE,158,0.0,3.0,99,0.02,RA,,0.08,WeatherDisplay:10.37,2013-01-14 18:25:00,
2013-01-14 13:30:00,60.5,60.2,30.09,SE,139,0.0,1.0,99,0.01,RA,,0.08,WeatherDisplay:10.37,2013-01-14 18:30:00,
2013-01-14 13:35:00,60.4,60.1,30.09,SE,139,0.0,1.0,99,0.00,CLR,,0.08,WeatherDisplay:10.37,2013-01-14 18:35:00,
2013-01-14 13:40:00,60.4,60.1,30.09,SE,135,1.0,2.0,99,0.00,CLR,,0.08,WeatherDisplay:10.37,2013-01-14 18:40:00,
2013-01-14 13:45:00,60.4,60.1,30.09,SE,135,0.0,1.0,99,0.00,CLR,,0.08,WeatherDisplay:10.37,2013-01-14 18:45:00,
2013-01-14 13:50:00,60.4,60.1,30.09,SE,135,1.0,2.0,99,0.00,CLR,,0.08,WeatherDisplay:10.37,2013-01-14 18:50:00,
2013-01-14 13:55:00,60.3,60.0,30.09,SE,137,0.0,1.0,99,0.01,RA,,0.09,WeatherDisplay:10.37,2013-01-14 18:55:00,
2013-01-14 14:00:00,60.2,59.9,30.09,SE,133,0.0,2.0,99,0.01,RA,,0.09,WeatherDisplay:10.37,2013-01-14 19:00:00,
2013-01-14 14:05:00,58.9,58.6,30.09,SE,126,2.0,4.0,99,0.01,RA,,0.10,WeatherDisplay:10.37,2013-01-14 19:05:00,
2013-01-14 14:10:00,58.8,58.5,30.09,SE,130,1.0,2.0,99,0.01,RA,,0.10,WeatherDisplay:10.37,2013-01-14 19:10:00,
2013-01-14 14:15:00,58.4,58.1,30.09,SE,137,1.0,2.0,99,0.00,CLR,,0.10,WeatherDisplay:10.37,2013-01-14 19:15:00,
2013-01-14 14:20:00,58.7,58.4,30.09,SE,142,1.0,2.0,99,0.01,RA,,0.11,WeatherDisplay:10.37,2013-01-14 19:20:00,
2013-01-14 14:25:00,59.0,58.7,30.09,SE,139,0.0,2.0,99,0.01,RA,,0.11,WeatherDisplay:10.37,2013-01-14 19:25:00,
2013-01-14 14:30:00,59.1,58.8,30.09,SE,141,1.0,3.0,99,0.01,RA,,0.12,WeatherDisplay:10.37,2013-01-14 19:30:00,
2013-01-14 14:35:00,59.0,58.7,30.09,SSE,147,1.0,3.0,99,0.02,RA,,0.13,WeatherDisplay:10.37,2013-01-14 19:35:00,
2013-01-14 14:40:00,59.5,59.2,30.09,SSE,152,2.0,3.0,99,0.02,RA,,0.14,WeatherDisplay:10.37,2013-01-14 19:40:00,
2013-01-14 14:45:00,59.2,58.9,30.09,SE,146,1.0,2.0,99,0.02,RA,,0.15,WeatherDisplay:10.37,2013-01-14 19:45:00,
2013-01-14 14:50:00,59.4,59.1,30.09,SE,137,1.0,3.0,99,0.01,RA,,0.15,WeatherDisplay:10.37,2013-01-14 19:50:00,
2013-01-14 14:55:00,58.5,58.2,30.10,SE,142,2.0,3.0,99,0.01,RA,,0.16,WeatherDisplay:10.37,2013-01-14 19:55:00,
2013-01-14 15:00:00,58.2,57.9,30.10,SE,139,1.0,2.0,99,0.01,RA,,0.16,WeatherDisplay:10.37,2013-01-14 20:00:00,
2013-01-14 15:05:00,58.5,58.2,30.09,SE,144,0.0,2.0,99,0.01,RA,,0.17,WeatherDisplay:10.37,2013-01-14 20:05:00,
2013-01-14 15:10:00,57.6,57.3,30.09,SE,144,0.0,1.0,99,0.01,RA,,0.17,WeatherDisplay:10.37,2013-01-14 20:10:00,
2013-01-14 15:15:00,56.8,56.5,30.08,SE,128,1.0,1.0,99,0.00,CLR,,0.17,WeatherDisplay:10.37,2013-01-14 20:15:00,
2013-01-14 15:20:00,56.2,55.6,30.08,ESE,115,1.0,2.0,98,0.00,CLR,,0.17,WeatherDisplay:10.37,2013-01-14 20:20:00,
2013-01-14 15:25:00,55.7,55.1,30.08,ESE,112,1.0,2.0,98,0.00,CLR,,0.17,WeatherDisplay:10.37,2013-01-14 20:25:00,
2013-01-14 15:30:00,55.4,55.1,30.08,ESE,123,1.0,2.0,99,0.01,RA,,0.18,WeatherDisplay:10.37,2013-01-14 20:30:00,
2013-01-14 15:35:00,55.3,55.0,30.08,ESE,121,1.0,2.0,99,0.01,RA,,0.18,WeatherDisplay:10.37,2013-01-14 20:35:00,
2013-01-14 15:40:00,55.1,54.8,30.08,ESE,106,1.0,2.0,99,0.00,CLR,,0.18,WeatherDisplay:10.37,2013-01-14 20:40:00,
2013-01-14 15:45:00,55.0,54.7,30.08,ESE,115,0.0,3.0,99,0.00,CLR,,0.18,WeatherDisplay:10.37,2013-01-14 20:45:00,
2013-01-14 15:50:00,54.8,54.5,30.08,SE,131,0.0,2.0,99,0.00,CLR,,0.18,WeatherDisplay:10.37,2013-01-14 20:50:00,
2013-01-14 15:55:00,54.7,54.4,30.08,SE,133,1.0,2.0,99,0.00,CLR,,0.18,WeatherDisplay:10.37,2013-01-14 20:55:00,
2013-01-14 16:00:00,54.6,54.3,30.07,ESE,123,1.0,2.0,99,0.00,CLR,,0.18,WeatherDisplay:10.37,2013-01-14 21:00:00,
2013-01-14 16:05:00,54.4,54.1,30.08,ESE,116,1.0,3.0,99,0.00,CLR,,0.18,WeatherDisplay:10.37,2013-01-14 21:05:00,
2013-01-14 16:10:00,54.2,53.9,30.07,ESE,116,1.0,2.0,99,0.00,CLR,,0.18,WeatherDisplay:10.37,2013-01-14 21:10:00,
2013-01-14 16:15:00,53.9,53.6,30.07,East,90,1.0,6.0,99,0.00,CLR,,0.18,WeatherDisplay:10.37,2013-01-14 21:15:00,
2013-01-14 16:20:00,53.8,53.5,30.07,East,85,1.0,2.0,99,0.00,CLR,,0.18,WeatherDisplay:10.37,2013-01-14 21:20:00,
2013-01-14 16:25:00,53.8,53.5,30.07,East,94,0.0,2.0,99,0.00,CLR,,0.18,WeatherDisplay:10.37,2013-01-14 21:25:00,
2013-01-14 16:30:00,53.9,53.6,30.07,ESE,109,0.0,2.0,99,0.00,CLR,,0.18,WeatherDisplay:10.37,2013-01-14 21:30:00,
2013-01-14 16:35:00,53.9,53.6,30.06,SE,137,0.0,2.0,99,0.00,CLR,,0.18,WeatherDisplay:10.37,2013-01-14 21:35:00,
2013-01-14 16:40:00,54.2,53.9,30.06,SE,131,1.0,3.0,99,0.00,CLR,,0.18,WeatherDisplay:10.37,2013-01-14 21:40:00,
2013-01-14 16:45:00,54.1,53.8,30.06,SE,125,1.0,2.0,99,0.01,RA,,0.19,WeatherDisplay:10.37,2013-01-14 21:45:00,
2013-01-14 16:50:00,54.0,53.7,30.06,SE,135,1.0,2.0,99,0.01,RA,,0.19,WeatherDisplay:10.37,2013-01-14 21:50:00,
2013-01-14 16:55:00,53.9,53.6,30.05,SE,126,1.0,3.0,99,0.00,CLR,,0.19,WeatherDisplay:10.37,2013-01-14 21:55:00,
2013-01-14 17:00:00,53.7,53.4,30.06,ESE,116,1.0,2.0,99,0.00,CLR,,0.19,WeatherDisplay:10.37,2013-01-14 22:00:00,
2013-01-14 17:05:00,53.6,53.3,30.05,ESE,110,2.0,2.0,99,0.00,CLR,,0.19,WeatherDisplay:10.37,2013-01-14 22:05:00,
2013-01-14 17:10:00,53.7,53.4,30.06,ESE,111,1.0,2.0,99,0.00,CLR,,0.19,WeatherDisplay:10.37,2013-01-14 22:10:00,
2013-01-14 17:15:00,54.2,53.9,30.06,ESE,112,2.0,4.0,99,0.00,CLR,,0.19,WeatherDisplay:10.37,2013-01-14 22:15:00,
2013-01-14 17:20:00,53.8,53.5,30.06,ESE,106,2.0,3.0,99,0.00,CLR,,0.19,WeatherDisplay:10.37,2013-01-14 22:20:00,
2013-01-14 17:25:00,53.5,53.2,30.06,East,97,1.0,2.0,99,0.00,CLR,,0.19,WeatherDisplay:10.37,2013-01-14 22:25:00,
2013-01-14 17:30:00,53.3,53.0,30.06,East,101,0.0,2.0,99,0.00,CLR,,0.19,WeatherDisplay:10.37,2013-01-14 22:30:00,
2013-01-14 17:35:00,53.3,53.0,30.06,ESE,117,1.0,1.0,99,0.00,CLR,,0.19,WeatherDisplay:10.37,2013-01-14 22:35:00,
2013-01-14 17:40:00,53.3,53.0,30.07,ESE,119,1.0,2.0,99,0.00,CLR,,0.19,WeatherDisplay:10.37,2013-01-14 22:40:00,
2013-01-14 17:45:00,53.2,52.9,30.07,ESE,112,1.0,3.0,99,0.00,CLR,,0.19,WeatherDisplay:10.37,2013-01-14 22:45:00,
2013-01-14 17:50:00,53.3,53.0,30.07,SE,125,2.0,3.0,99,0.00,CLR,,0.19,WeatherDisplay:10.37,2013-01-14 22:50:00,
2013-01-14 17:55:00,53.3,53.0,30.07,SE,145,0.0,2.0,99,0.00,CLR,,0.19,WeatherDisplay:10.37,2013-01-14 22:55:00,
2013-01-14 18:00:00,53.5,53.2,30.07,SE,142,1.0,4.0,99,0.00,CLR,,0.19,WeatherDisplay:10.37,2013-01-14 23:00:00,
2013-01-14 18:05:00,54.1,53.8,30.07,SE,130,2.0,3.0,99,0.00,CLR,,0.19,WeatherDisplay:10.37,2013-01-14 23:05:00,
2013-01-14 18:10:00,54.1,53.8,30.07,SE,130,1.0,2.0,99,0.00,CLR,,0.19,WeatherDisplay:10.37,2013-01-14 23:10:00,
2013-01-14 18:15:00,55.0,54.7,30.07,SE,143,1.0,3.0,99,0.00,CLR,,0.19,WeatherDisplay:10.37,2013-01-14 23:15:00,
2013-01-14 18:20:00,55.5,55.2,30.07,SSE,151,1.0,3.0,99,0.00,CLR,,0.19,WeatherDisplay:10.37,2013-01-14 23:20:00,
2013-01-14 18:25:00,56.2,55.9,30.08,SSE,148,1.0,3.0,99,0.00,CLR,,0.19,WeatherDisplay:10.37,2013-01-14 23:25:00,
2013-01-14 18:30:00,55.6,55.3,30.08,SE,139,1.0,2.0,99,0.00,CLR,,0.19,WeatherDisplay:10.37,2013-01-14 23:30:00,
2013-01-14 18:35:00,56.1,55.8,30.08,SSE,150,2.0,4.0,99,0.00,CLR,,0.19,WeatherDisplay:10.37,2013-01-14 23:35:00,
2013-01-14 18:40:00,56.1,55.8,30.08,SSE,160,2.0,3.0,99,0.00,CLR,,0.19,WeatherDisplay:10.37,2013-01-14 23:40:00,
2013-01-14 18:45:00,55.1,54.8,30.08,SE,140,2.0,2.0,99,0.00,CLR,,0.19,WeatherDisplay:10.37,2013-01-14 23:45:00,
2013-01-14 18:50:00,54.3,54.0,30.09,SE,128,1.0,3.0,99,0.00,CLR,,0.19,WeatherDisplay:10.37,2013-01-14 23:50:00,
2013-01-14 18:55:00,54.0,53.7,30.09,South,169,2.0,3.0,99,0.00,CLR,,0.19,WeatherDisplay:10.37,2013-01-14 23:55:00,
2013-01-14 19:00:00,54.2,53.9,30.09,SSE,151,1.0,3.0,99,0.00,CLR,,0.19,WeatherDisplay:10.37,2013-01-15 00:00:00,
2013-01-14 19:05:00,54.3,54.0,30.09,ESE,119,1.0,3.0,99,0.00,CLR,,0.19,WeatherDisplay:10.37,2013-01-15 00:05:00,
2013-01-14 19:10:00,54.3,54.0,30.09,SE,131,1.0,3.0,99,0.00,CLR,,0.19,WeatherDisplay:10.37,2013-01-15 00:10:00,
2013-01-14 19:15:00,53.7,53.4,30.09,SE,130,0.0,2.0,99,0.00,CLR,,0.19,WeatherDisplay:10.37,2013-01-15 00:15:00,
2013-01-14 19:20:00,53.7,53.4,30.10,SE,129,2.0,3.0,99,0.00,CLR,,0.19,WeatherDisplay:10.37,2013-01-15 00:20:00,
2013-01-14 19:25:00,53.6,53.3,30.10,SE,130,1.0,2.0,99,0.00,CLR,,0.19,WeatherDisplay:10.37,2013-01-15 00:25:00,
2013-01-14 19:30:00,53.4,53.1,30.10,SE,125,1.0,3.0,99,0.00,CLR,,0.19,WeatherDisplay:10.37,2013-01-15 00:30:00,
2013-01-14 19:35:00,53.2,52.9,30.10,SE,129,1.0,2.0,99,0.00,CLR,,0.19,WeatherDisplay:10.37,2013-01-15 00:35:00,
2013-01-14 19:40:00,53.1,52.8,30.10,ESE,114,2.0,3.0,99,0.00,CLR,,0.19,WeatherDisplay:10.37,2013-01-15 00:40:00,
2013-01-14 19:45:00,53.0,52.7,30.11,East,101,1.0,3.0,99,0.00,CLR,,0.19,WeatherDisplay:10.37,2013-01-15 00:45:00,
2013-01-14 19:50:00,52.9,52.6,30.11,ESE,102,2.0,4.0,99,0.00,CLR,,0.19,WeatherDisplay:10.37,2013-01-15 00:50:00,
2013-01-14 19:55:00,52.9,52.6,30.11,East,93,1.0,3.0,99,0.01,RA,,0.20,WeatherDisplay:10.37,2013-01-15 00:55:00,
2013-01-14 20:00:00,52.9,52.6,30.12,ESE,102,1.0,2.0,99,0.01,RA,,0.20,WeatherDisplay:10.37,2013-01-15 01:00:00,
2013-01-14 20:05:00,52.9,52.6,30.12,East,101,1.0,2.0,99,0.00,CLR,,0.20,WeatherDisplay:10.37,2013-01-15 01:05:00,
2013-01-14 20:10:00,52.8,52.5,30.12,East,80,0.0,4.0,99,0.00,CLR,,0.20,WeatherDisplay:10.37,2013-01-15 01:10:00,
2013-01-14 20:15:00,52.8,52.5,30.12,East,81,0.0,3.0,99,0.00,CLR,,0.20,WeatherDisplay:10.37,2013-01-15 01:15:00,
2013-01-14 20:20:00,52.8,52.5,30.12,ENE,59,0.0,1.0,99,0.00,CLR,,0.20,WeatherDisplay:10.37,2013-01-15 01:20:00,
2013-01-14 20:25:00,52.8,52.5,30.12,NE,45,1.0,2.0,99,0.00,CLR,,0.20,WeatherDisplay:10.37,2013-01-15 01:25:00,
2013-01-14 20:30:00,52.7,52.4,30.12,ENE,59,1.0,2.0,99,0.00,CLR,,0.20,WeatherDisplay:10.37,2013-01-15 01:30:00,
2013-01-14 20:35:00,52.6,52.3,30.12,East,91,1.0,1.0,99,0.01,RA,,0.21,WeatherDisplay:10.37,2013-01-15 01:35:00,
2013-01-14 20:40:00,52.6,52.3,30.12,ESE,108,1.0,2.0,99,0.01,RA,,0.21,WeatherDisplay:10.37,2013-01-15 01:40:00,
2013-01-14 20:45:00,52.6,52.3,30.12,East,100,1.0,2.0,99,0.00,CLR,,0.21,WeatherDisplay:10.37,2013-01-15 01:45:00,
2013-01-14 20:50:00,52.5,52.2,30.13,East,85,2.0,3.0,99,0.00,CLR,,0.21,WeatherDisplay:10.37,2013-01-15 01:50:00,
2013-01-14 20:55:00,52.5,52.2,30.13,East,83,1.0,2.0,99,0.00,CLR,,0.21,WeatherDisplay:10.37,2013-01-15 01:55:00,
2013-01-14 21:00:00,52.4,52.1,30.13,East,92,2.0,3.0,99,0.00,CLR,,0.21,WeatherDisplay:10.37,2013-01-15 02:00:00,
2013-01-14 21:05:00,52.4,52.1,30.13,East,93,1.0,2.0,99,0.00,CLR,,0.21,WeatherDisplay:10.37,2013-01-15 02:05:00,
2013-01-14 21:10:00,52.2,51.9,30.13,East,95,3.0,4.0,99,0.00,CLR,,0.21,WeatherDisplay:10.37,2013-01-15 02:10:00,
2013-01-14 21:15:00,52.2,51.9,30.13,East,87,2.0,4.0,99,0.00,CLR,,0.21,WeatherDisplay:10.37,2013-01-15 02:15:00,
2013-01-14 21:20:00,52.1,51.8,30.13,East,85,2.0,4.0,99,0.00,CLR,,0.21,WeatherDisplay:10.37,2013-01-15 02:20:00,
2013-01-14 21:25:00,52.1,51.8,30.13,East,90,1.0,3.0,99,0.00,CLR,,0.21,WeatherDisplay:10.37,2013-01-15 02:25:00,
2013-01-14 21:30:00,52.1,51.8,30.13,East,88,2.0,4.0,99,0.01,RA,,0.22,WeatherDisplay:10.37,2013-01-15 02:30:00,
2013-01-14 21:35:00,52.0,51.7,30.13,East,93,2.0,4.0,99,0.01,RA,,0.22,WeatherDisplay:10.37,2013-01-15 02:35:00,
2013-01-14 21:40:00,52.0,51.7,30.12,East,86,3.0,5.0,99,0.00,CLR,,0.22,WeatherDisplay:10.37,2013-01-15 02:40:00,
2013-01-14 21:45:00,52.0,51.7,30.13,East,83,1.0,3.0,99,0.00,CLR,,0.22,WeatherDisplay:10.37,2013-01-15 02:45:00,
2013-01-14 21:50:00,51.8,51.5,30.13,East,82,2.0,3.0,99,0.00,CLR,,0.22,WeatherDisplay:10.37,2013-01-15 02:50:00,
2013-01-14 21:55:00,51.7,51.4,30.13,East,82,3.0,5.0,99,0.00,CLR,,0.22,WeatherDisplay:10.37,2013-01-15 02:55:00,
2013-01-14 22:00:00,51.6,51.3,30.13,East,87,3.0,5.0,99,0.00,CLR,,0.22,WeatherDisplay:10.37,2013-01-15 03:00:00,
2013-01-14 22:05:00,51.4,51.1,30.13,East,84,3.0,5.0,99,0.01,RA,,0.23,WeatherDisplay:10.37,2013-01-15 03:05:00,
2013-01-14 22:10:00,51.3,51.0,30.13,ENE,77,2.0,4.0,99,0.01,RA,,0.23,WeatherDisplay:10.37,2013-01-15 03:10:00,
2013-01-14 22:15:00,51.3,51.0,30.13,ENE,75,2.0,6.0,99,0.00,CLR,,0.23,WeatherDisplay:10.37,2013-01-15 03:15:00,
2013-01-14 22:20:00,51.1,50.8,30.13,East,80,3.0,6.0,99,0.00,CLR,,0.23,WeatherDisplay:10.37,2013-01-15 03:20:00,
2013-01-14 22:25:00,51.0,50.7,30.13,ENE,78,3.0,8.0,99,0.01,RA,,0.24,WeatherDisplay:10.37,2013-01-15 03:25:00,
2013-01-14 22:30:00,50.9,50.6,30.13,ENE,77,3.0,7.0,99,0.01,RA,,0.24,WeatherDisplay:10.37,2013-01-15 03:30:00,
2013-01-14 22:35:00,51.0,50.7,30.13,ENE,78,3.0,6.0,99,0.01,RA,,0.25,WeatherDisplay:10.37,2013-01-15 03:35:00,
2013-01-14 22:40:00,50.9,50.6,30.13,ENE,74,2.0,7.0,99,0.01,RA,,0.25,WeatherDisplay:10.37,2013-01-15 03:40:00,
2013-01-14 22:45:00,50.9,50.6,30.13,East,80,3.0,4.0,99,0.00,CLR,,0.25,WeatherDisplay:10.37,2013-01-15 03:45:00,
2013-01-14 22:50:00,50.9,50.6,30.13,East,80,3.0,6.0,99,0.00,CLR,,0.25,WeatherDisplay:10.37,2013-01-15 03:50:00,
2013-01-14 22:55:00,50.8,50.5,30.12,ENE,69,3.0,6.0,99,0.01,RA,,0.26,WeatherDisplay:10.37,2013-01-15 03:55:00,
2013-01-14 23:00:00,50.6,50.3,30.12,ENE,63,3.0,6.0,99,0.01,RA,,0.26,WeatherDisplay:10.37,2013-01-15 04:00:00,
2013-01-14 23:05:00,50.4,50.1,30.12,ENE,57,5.0,8.0,99,0.01,RA,,0.27,WeatherDisplay:10.37,2013-01-15 04:05:00,
2013-01-14 23:10:00,50.1,49.8,30.12,ENE,58,5.0,7.0,99,0.01,RA,,0.27,WeatherDisplay:10.37,2013-01-15 04:10:00,
2013-01-14 23:15:00,50.0,49.7,30.12,ENE,59,3.0,7.0,99,0.00,CLR,,0.27,WeatherDisplay:10.37,2013-01-15 04:15:00,
2013-01-14 23:20:00,50.0,49.7,30.12,ENE,63,5.0,8.0,99,0.00,CLR,,0.27,WeatherDisplay:10.37,2013-01-15 04:20:00,
2013-01-14 23:25:00,49.9,49.6,30.12,ENE,70,3.0,6.0,99,0.00,CLR,,0.27,WeatherDisplay:10.37,2013-01-15 04:25:00,
2013-01-14 23:30:00,49.9,49.6,30.12,ENE,74,3.0,8.0,99,0.00,CLR,,0.27,WeatherDisplay:10.37,2013-01-15 04:30:00,
2013-01-14 23:35:00,49.9,49.6,30.11,ENE,74,3.0,7.0,99,0.00,CLR,,0.27,WeatherDisplay:10.37,2013-01-15 04:35:00,
2013-01-14 23:40:00,49.8,49.5,30.11,ENE,69,3.0,6.0,99,0.01,RA,,0.28,WeatherDisplay:10.37,2013-01-15 04:40:00,
2013-01-14 23:45:00,49.7,49.4,30.11,ENE,67,3.0,7.0,99,0.01,RA,,0.28,WeatherDisplay:10.37,2013-01-15 04:45:00,
2013-01-14 23:50:00,49.5,49.2,30.11,ENE,68,3.0,5.0,99,0.00,CLR,,0.28,WeatherDisplay:10.37,2013-01-15 04:50:00,
2013-01-14 23:55:00,49.5,49.2,30.11,ENE,76,2.0,5.0,99,0.01,RA,,0.29,WeatherDisplay:10.37,2013-01-15 04:55:00,